createdAt,value
2023-02-11T00:01:47.895Z,1.20
2023-02-11T00:04:15.839Z,1.10
2023-02-11T00:06:43.750Z,1.00
2023-02-11T00:09:11.748Z,1.00
2023-02-11T00:11:39.417Z,0.90
2023-02-11T00:14:08.571Z,1.00
2023-02-11T00:16:36.363Z,1.20
2023-02-11T00:19:06.463Z,1.30
2023-02-11T00:21:34.794Z,1.50
2023-02-11T00:24:02.656Z,1.20
2023-02-11T00:26:33.301Z,1.30
2023-02-11T00:29:01.559Z,1.30
2023-02-11T00:31:32.762Z,1.30
2023-02-11T00:34:00.574Z,1.30
2023-02-11T00:36:30.024Z,1.20
2023-02-11T00:38:58.744Z,1.00
2023-02-11T00:41:26.646Z,1.00
2023-02-11T00:43:54.334Z,1.10
2023-02-11T00:46:22.459Z,1.10
2023-02-11T00:48:51.897Z,1.00
2023-02-11T00:51:22.377Z,1.10
2023-02-11T00:53:50.079Z,1.10
2023-02-11T00:56:17.911Z,1.20
2023-02-11T00:58:46.907Z,1.30
2023-02-11T01:01:14.709Z,1.50
2023-02-11T01:03:43.960Z,1.50
2023-02-11T01:06:12.174Z,1.50
2023-02-11T01:08:40.576Z,1.40
2023-02-11T01:11:16.173Z,1.40
2023-02-11T01:13:46.925Z,1.00
2023-02-11T01:16:15.340Z,0.80
2023-02-11T01:18:44.570Z,0.60
2023-02-11T01:21:13.682Z,0.40
2023-02-11T01:23:44.317Z,0.30
2023-02-11T01:26:13.017Z,0.40
2023-02-11T01:28:40.874Z,0.50
2023-02-11T01:31:11.290Z,0.70
2023-02-11T01:33:39.287Z,0.70
2023-02-11T01:36:08.089Z,0.90
2023-02-11T01:38:36.836Z,0.80
2023-02-11T01:41:08.082Z,0.80
2023-02-11T01:43:39.993Z,1.00
2023-02-11T01:46:14.640Z,1.00
2023-02-11T01:48:50.130Z,1.00
2023-02-11T01:51:24.978Z,0.90
2023-02-11T01:54:12.951Z,0.80
2023-02-11T01:57:03.617Z,0.80
2023-02-11T01:59:59.051Z,0.60
2023-02-11T02:02:33.796Z,0.50
2023-02-11T02:05:17.914Z,0.40
2023-02-11T02:07:58.946Z,0.50
2023-02-11T02:10:29.023Z,0.60
2023-02-11T02:12:57.447Z,0.60
2023-02-11T02:15:29.243Z,0.60
2023-02-11T02:18:02.460Z,0.70
2023-02-11T02:20:39.128Z,0.80
2023-02-11T02:23:12.543Z,0.90
2023-02-11T02:26:05.057Z,0.80
2023-02-11T02:28:45.982Z,0.80
2023-02-11T02:31:55.987Z,0.90
2023-02-11T02:34:34.251Z,0.70
2023-02-11T02:37:13.082Z,0.60
2023-02-11T02:39:40.854Z,0.60
2023-02-11T02:42:09.347Z,0.50
2023-02-11T02:44:36.982Z,0.40
2023-02-11T02:47:04.589Z,0.30
2023-02-11T02:49:32.236Z,0.30
2023-02-11T02:52:14.818Z,0.40
2023-02-11T02:54:53.639Z,0.60
2023-02-11T02:57:37.927Z,0.50
2023-02-11T03:00:15.631Z,0.70
2023-02-11T03:02:50.073Z,0.60
2023-02-11T03:05:45.010Z,0.50
2023-02-11T03:08:16.696Z,0.30
2023-02-11T03:10:51.197Z,0.50
2023-02-11T03:13:24.414Z,0.60
2023-02-11T03:15:55.905Z,0.50
2023-02-11T03:18:27.846Z,0.30
2023-02-11T03:20:58.261Z,0.30
2023-02-11T03:23:53.647Z,0.20
2023-02-11T03:26:51.261Z,0.20
2023-02-11T03:29:41.252Z,0.40
2023-02-11T03:32:29.192Z,0.40
2023-02-11T03:35:21.749Z,0.30
2023-02-11T03:37:54.577Z,0.10
2023-02-11T03:40:26.649Z,0.10
2023-02-11T03:42:59.639Z,0.10
2023-02-11T03:45:28.814Z,0.00
2023-02-11T03:48:04.129Z,-0.10
2023-02-11T03:50:34.213Z,-0.20
2023-02-11T03:53:03.223Z,-0.10
2023-02-11T03:55:33.805Z,0.00
2023-02-11T03:58:01.695Z,0.00
2023-02-11T04:00:39.761Z,0.00
2023-02-11T04:03:08.717Z,0.30
2023-02-11T04:05:36.633Z,0.50
2023-02-11T04:08:05.098Z,0.30
2023-02-11T04:10:32.975Z,0.30
2023-02-11T04:13:01.312Z,0.50
2023-02-11T04:15:29.172Z,0.10
2023-02-11T04:17:56.993Z,-0.10
2023-02-11T04:20:24.761Z,0.10
2023-02-11T04:22:52.350Z,0.10
2023-02-11T04:25:19.981Z,0.00
2023-02-11T04:27:47.631Z,0.00
2023-02-11T04:30:15.363Z,-0.10
2023-02-11T04:32:43.078Z,-0.10
2023-02-11T04:35:10.784Z,-0.10
2023-02-11T04:37:38.375Z,-0.10
2023-02-11T04:40:06.923Z,-0.10
2023-02-11T04:42:34.527Z,-0.30
2023-02-11T04:45:02.117Z,-0.30
2023-02-11T04:47:30.164Z,-0.20
2023-02-11T04:49:57.758Z,-0.10
2023-02-11T04:52:25.686Z,0.10
2023-02-11T04:54:53.283Z,-0.10
2023-02-11T04:57:20.912Z,-0.20
2023-02-11T04:59:48.990Z,-0.20
2023-02-11T05:02:16.580Z,-0.10
2023-02-11T05:04:44.194Z,0.10
2023-02-11T05:07:12.568Z,0.10
2023-02-11T05:09:40.130Z,0.10
2023-02-11T05:12:08.232Z,0.00
2023-02-11T05:14:35.968Z,-0.10
2023-02-11T05:17:04.066Z,-0.10
2023-02-11T05:19:32.139Z,-0.10
2023-02-11T05:22:03.072Z,0.00
2023-02-11T05:24:34.603Z,0.10
2023-02-11T05:27:02.574Z,-0.10
2023-02-11T05:29:30.113Z,-0.30
2023-02-11T05:32:00.193Z,-0.40
2023-02-11T05:34:28.959Z,-0.40
2023-02-11T05:36:57.431Z,-0.60
2023-02-11T05:39:24.986Z,-0.80
2023-02-11T05:41:52.640Z,-0.60
2023-02-11T05:44:20.813Z,-0.50
2023-02-11T05:46:49.652Z,-0.40
2023-02-11T05:49:18.388Z,-0.20
2023-02-11T05:51:46.273Z,-0.30
2023-02-11T05:54:14.284Z,-0.50
2023-02-11T05:56:44.913Z,-0.40
2023-02-11T05:59:15.044Z,-0.30
2023-02-11T06:01:43.186Z,-0.50
2023-02-11T06:04:10.929Z,-0.50
2023-02-11T06:06:38.888Z,-0.50
2023-02-11T06:09:06.554Z,-0.50
2023-02-11T06:11:34.076Z,-0.50
2023-02-11T06:14:01.809Z,-0.60
2023-02-11T06:16:29.542Z,-0.60
2023-02-11T06:18:58.303Z,-0.30
2023-02-11T06:21:36.360Z,-0.20
2023-02-11T06:24:10.461Z,-0.20
2023-02-11T06:26:38.272Z,-0.10
2023-02-11T06:29:06.149Z,-0.20
2023-02-11T06:31:33.957Z,-0.40
2023-02-11T06:34:01.557Z,-0.60
2023-02-11T06:36:29.953Z,-0.50
2023-02-11T06:38:57.577Z,-0.50
2023-02-11T06:41:25.248Z,-0.20
2023-02-11T06:43:53.288Z,-0.20
2023-02-11T06:46:21.100Z,-0.30
2023-02-11T06:48:48.938Z,-0.30
2023-02-11T06:51:16.772Z,-0.20
2023-02-11T06:53:49.154Z,0.00
2023-02-11T06:56:20.062Z,0.90
2023-02-11T06:58:48.012Z,1.70
2023-02-11T07:01:16.880Z,2.30
2023-02-11T07:03:45.654Z,2.80
2023-02-11T07:06:16.239Z,3.10
2023-02-11T07:08:46.156Z,3.00
2023-02-11T07:11:15.157Z,3.50
2023-02-11T07:13:43.714Z,3.70
2023-02-11T07:16:14.365Z,4.00
2023-02-11T07:18:43.813Z,4.50
2023-02-11T07:21:13.809Z,4.70
2023-02-11T07:23:42.488Z,4.90
2023-02-11T07:26:19.535Z,4.60
2023-02-11T07:28:52.763Z,4.80
2023-02-11T07:31:25.771Z,5.10
2023-02-11T07:33:57.749Z,5.30
2023-02-11T07:36:25.517Z,5.10
2023-02-11T07:38:53.382Z,4.50
2023-02-11T07:41:24.222Z,4.10
2023-02-11T07:43:52.786Z,3.90
2023-02-11T07:46:23.862Z,3.80
2023-02-11T07:48:52.528Z,3.40
2023-02-11T07:51:25.649Z,3.20
2023-02-11T07:53:53.964Z,3.20
2023-02-11T07:56:23.403Z,3.60
2023-02-11T07:58:51.559Z,3.80
2023-02-11T08:01:32.429Z,4.50
2023-02-11T08:04:03.652Z,4.60
2023-02-11T08:06:35.583Z,4.60
2023-02-11T08:09:09.562Z,4.50
2023-02-11T08:11:38.843Z,4.60
2023-02-11T08:14:09.796Z,4.70
2023-02-11T08:16:41.727Z,4.60
2023-02-11T08:19:14.147Z,4.40
2023-02-11T08:21:42.782Z,4.40
2023-02-11T08:24:13.031Z,4.60
2023-02-11T08:26:41.178Z,4.80
2023-02-11T08:29:13.475Z,4.90
2023-02-11T08:31:43.804Z,4.90
2023-02-11T08:34:14.312Z,4.60
2023-02-11T08:36:42.867Z,4.60
2023-02-11T08:39:21.229Z,4.70
2023-02-11T08:41:59.015Z,4.70
2023-02-11T08:44:26.945Z,4.90
2023-02-11T08:46:54.696Z,4.80
2023-02-11T08:49:22.927Z,4.90
2023-02-11T08:51:50.640Z,5.20
2023-02-11T08:54:18.195Z,5.40
2023-02-11T08:56:45.759Z,5.50
2023-02-11T08:59:15.444Z,5.60
2023-02-11T09:01:44.342Z,5.60
2023-02-11T09:04:12.318Z,5.70
2023-02-11T09:06:39.914Z,5.50
2023-02-11T09:09:13.574Z,5.30
2023-02-11T09:11:42.617Z,5.30
2023-02-11T09:14:20.972Z,5.50
2023-02-11T09:16:49.420Z,5.50
2023-02-11T09:19:17.608Z,5.70
2023-02-11T09:21:45.260Z,6.00
2023-02-11T09:24:17.363Z,6.20
2023-02-11T09:26:45.280Z,6.50
2023-02-11T09:29:13.767Z,6.70
2023-02-11T09:31:41.967Z,6.70
2023-02-11T09:34:18.023Z,6.80
2023-02-11T09:36:52.975Z,6.80
2023-02-11T09:55:13.808Z,6.70
2023-02-11T09:58:07.021Z,6.70
2023-02-11T10:05:01.322Z,6.80
2023-02-11T10:19:39.974Z,7.10
2023-02-11T11:01:23.424Z,7.80
2023-02-11T11:12:18.272Z,8.80
2023-02-11T11:15:01.916Z,8.70
2023-02-11T11:17:29.984Z,9.00
2023-02-11T11:20:22.025Z,9.00
2023-02-11T11:22:54.870Z,9.90
2023-02-11T11:25:35.500Z,9.90
2023-02-11T11:28:11.165Z,9.90
2023-02-11T11:30:49.712Z,10.00
2023-02-11T11:33:26.300Z,10.50
2023-02-11T11:36:34.284Z,11.00
2023-02-11T11:39:47.786Z,10.80
2023-02-11T11:42:37.435Z,10.60
2023-02-11T11:45:06.511Z,10.60
2023-02-11T11:48:04.364Z,10.30
2023-02-11T11:51:05.853Z,10.00
2023-02-11T11:53:53.430Z,10.00
2023-02-11T11:56:27.612Z,10.80
2023-02-11T11:58:58.645Z,11.30
2023-02-11T12:01:53.005Z,11.80
2023-02-11T12:04:45.748Z,12.10
2023-02-11T12:08:03.729Z,12.80
2023-02-11T12:10:47.739Z,14.30
2023-02-11T12:13:56.909Z,17.30
2023-02-11T12:16:52.364Z,16.10
2023-02-11T12:19:56.700Z,14.70
2023-02-11T12:22:35.820Z,13.50
2023-02-11T12:25:03.372Z,13.30
2023-02-11T12:27:57.940Z,13.20
2023-02-11T12:30:54.524Z,13.20
2023-02-11T12:33:57.685Z,12.60
2023-02-11T12:37:07.921Z,12.80
2023-02-11T12:40:14.758Z,12.60
2023-02-11T12:43:02.639Z,13.00
2023-02-11T12:46:09.930Z,13.80
2023-02-11T12:49:13.147Z,14.50
2023-02-11T12:52:02.286Z,15.50
2023-02-11T12:54:58.526Z,16.50
2023-02-11T12:57:41.903Z,17.80
2023-02-11T13:00:45.736Z,19.10
2023-02-11T13:03:30.569Z,21.30
2023-02-11T13:06:18.583Z,23.10
2023-02-11T13:08:54.331Z,23.20
2023-02-11T13:11:35.502Z,21.20
2023-02-11T13:14:14.381Z,18.30
2023-02-11T13:16:43.809Z,16.80
2023-02-11T13:19:23.648Z,16.90
2023-02-11T13:22:00.382Z,18.60
2023-02-11T13:25:02.929Z,20.20
2023-02-11T13:27:59.476Z,22.40
2023-02-11T13:30:35.116Z,22.10
2023-02-11T13:33:05.137Z,23.60
2023-02-11T13:35:47.859Z,23.10
2023-02-11T13:38:22.637Z,23.80
2023-02-11T13:41:18.467Z,24.80
2023-02-11T13:44:25.342Z,25.10
2023-02-11T13:47:07.190Z,24.20
2023-02-11T13:49:50.914Z,22.80
2023-02-11T13:52:30.579Z,21.40
2023-02-11T13:55:17.795Z,20.20
2023-02-11T13:58:11.365Z,17.50
2023-02-11T14:00:39.575Z,15.60
2023-02-11T14:03:30.495Z,14.60
2023-02-11T14:06:34.202Z,14.00
2023-02-11T14:09:14.154Z,13.60
2023-02-11T14:11:47.537Z,13.30
2023-02-11T14:14:35.414Z,12.90
2023-02-11T14:17:22.227Z,12.90
2023-02-11T14:20:07.766Z,12.90
2023-02-11T14:23:02.125Z,12.80
2023-02-11T14:25:33.878Z,12.60
2023-02-11T14:28:25.436Z,12.60
2023-02-11T14:31:13.316Z,12.70
2023-02-11T14:34:19.733Z,12.70
2023-02-11T14:37:12.294Z,12.60
2023-02-11T14:40:26.083Z,12.60
2023-02-11T14:43:15.028Z,12.80
2023-02-11T14:46:02.290Z,12.70
2023-02-11T14:49:04.582Z,12.50
2023-02-11T14:51:42.139Z,12.50
2023-02-11T14:54:25.465Z,12.40
2023-02-11T14:57:38.332Z,12.60
2023-02-11T15:00:25.185Z,12.50
2023-02-11T15:03:00.876Z,12.50
2023-02-11T15:05:32.129Z,12.60
2023-02-11T15:08:06.531Z,12.50
2023-02-11T15:10:42.209Z,12.50
2023-02-11T15:13:33.245Z,12.60
2023-02-11T15:16:24.182Z,12.60
2023-02-11T15:19:41.471Z,12.60
2023-02-11T15:22:24.031Z,12.60
2023-02-11T15:25:10.888Z,12.40
2023-02-11T15:27:43.564Z,12.30
2023-02-11T15:30:33.235Z,12.00
2023-02-11T15:33:23.623Z,11.80
2023-02-11T15:36:00.404Z,11.80
2023-02-11T15:38:34.563Z,11.80
2023-02-11T15:41:07.610Z,11.70
2023-02-11T15:43:47.604Z,11.40
2023-02-11T15:46:20.097Z,11.30
2023-02-11T15:48:56.607Z,11.20
2023-02-11T15:51:43.317Z,11.00
2023-02-11T15:54:26.892Z,11.00
2023-02-11T15:57:05.012Z,10.90
2023-02-11T15:59:55.356Z,10.80
2023-02-11T16:02:40.319Z,10.80
2023-02-11T16:05:24.469Z,10.60
2023-02-11T16:07:56.362Z,10.50
2023-02-11T16:10:40.386Z,10.30
2023-02-11T16:13:11.108Z,10.10
2023-02-11T16:15:59.799Z,9.90
2023-02-11T16:18:37.638Z,9.80
2023-02-11T16:21:13.759Z,9.40
2023-02-11T16:23:44.563Z,9.20
2023-02-11T16:26:35.559Z,8.90
2023-02-11T16:29:12.946Z,8.90
2023-02-11T16:31:43.552Z,8.60
2023-02-11T16:34:23.055Z,8.50
2023-02-11T16:36:52.567Z,8.40
2023-02-11T16:39:23.783Z,8.30
2023-02-11T16:41:52.478Z,8.20
2023-02-11T16:44:19.995Z,7.90
2023-02-11T16:46:48.362Z,7.90
2023-02-11T16:49:23.581Z,7.70
2023-02-11T16:51:54.004Z,7.60
2023-02-11T16:54:21.542Z,7.60
2023-02-11T16:56:49.087Z,7.60
2023-02-11T16:59:16.659Z,7.50
2023-02-11T17:01:45.813Z,7.60
2023-02-11T17:04:19.122Z,7.40
2023-02-11T17:06:48.234Z,7.30
2023-02-11T17:09:20.049Z,7.10
2023-02-11T17:11:47.961Z,7.00
2023-02-11T17:14:15.816Z,6.90
2023-02-11T17:16:46.399Z,6.80
2023-02-11T17:19:16.982Z,6.80
2023-02-11T17:21:46.209Z,6.70
2023-02-11T17:24:16.953Z,6.70
2023-02-11T17:26:45.302Z,6.50
2023-02-11T17:29:21.247Z,6.60
2023-02-11T17:31:49.067Z,6.40
2023-02-11T17:34:17.526Z,6.40
2023-02-11T17:36:45.399Z,6.40
2023-02-11T17:39:13.012Z,6.30
2023-02-11T17:41:41.224Z,6.20
2023-02-11T17:44:10.764Z,6.20
2023-02-11T17:46:40.940Z,6.20
2023-02-11T17:49:08.404Z,6.10
2023-02-11T17:51:38.394Z,6.00
2023-02-11T17:54:14.664Z,6.00
2023-02-11T17:56:43.339Z,5.90
2023-02-11T17:59:12.267Z,5.80
2023-02-11T18:01:42.015Z,5.80
2023-02-11T18:04:14.404Z,5.80
2023-02-11T18:06:42.815Z,5.70
2023-02-11T18:09:11.297Z,5.70
2023-02-11T18:11:40.118Z,5.70
2023-02-11T18:14:08.596Z,5.80
2023-02-11T18:16:40.779Z,5.70
2023-02-11T18:19:09.440Z,5.70
2023-02-11T18:21:37.721Z,5.70
2023-02-11T18:24:06.956Z,5.70
2023-02-11T18:26:36.024Z,5.60
2023-02-11T18:29:05.285Z,5.80
2023-02-11T18:31:34.116Z,5.70
2023-02-11T18:34:07.784Z,5.80
2023-02-11T18:36:37.004Z,5.60
2023-02-11T18:39:05.262Z,5.60
2023-02-11T18:41:33.437Z,5.50
2023-02-11T18:44:03.204Z,5.50
2023-02-11T18:46:31.415Z,5.40
2023-02-11T18:48:58.984Z,5.30
2023-02-11T18:51:27.162Z,5.20
2023-02-11T18:53:56.347Z,5.10
2023-02-11T18:56:28.100Z,5.00
2023-02-11T18:59:01.494Z,5.20
2023-02-11T19:01:31.471Z,5.10
2023-02-11T19:04:03.847Z,5.20
2023-02-11T19:06:36.604Z,5.10
2023-02-11T19:09:09.989Z,5.10
2023-02-11T19:11:50.394Z,5.10
2023-02-11T19:14:39.093Z,5.10
2023-02-11T19:17:07.807Z,5.10
2023-02-11T19:19:36.653Z,5.00
2023-02-11T19:22:08.523Z,5.00
2023-02-11T19:24:37.734Z,4.80
2023-02-11T19:27:13.157Z,4.80
2023-02-11T19:29:42.392Z,4.90
2023-02-11T19:32:10.829Z,4.90
2023-02-11T19:34:41.670Z,4.90
2023-02-11T19:37:12.704Z,4.80
2023-02-11T19:39:41.465Z,4.90
2023-02-11T19:42:09.066Z,4.90
2023-02-11T19:44:36.569Z,4.90
2023-02-11T19:47:04.510Z,4.80
2023-02-11T19:49:32.116Z,4.70
2023-02-11T19:51:59.712Z,4.70
2023-02-11T19:54:29.219Z,4.60
2023-02-11T19:56:58.196Z,4.60
2023-02-11T19:59:25.988Z,4.60
2023-02-11T20:01:54.152Z,4.50
2023-02-11T20:04:21.784Z,4.50
2023-02-11T20:06:50.451Z,4.50
2023-02-11T20:09:18.004Z,4.40
2023-02-11T20:11:45.603Z,4.30
2023-02-11T20:14:15.381Z,4.30
2023-02-11T20:16:49.147Z,4.20
2023-02-11T20:19:22.155Z,4.20
2023-02-11T20:21:53.830Z,4.20
2023-02-11T20:24:22.306Z,4.10
2023-02-11T20:26:51.980Z,4.10
2023-02-11T20:29:19.513Z,4.10
2023-02-11T20:31:48.743Z,4.10
2023-02-11T20:34:18.250Z,4.20
2023-02-11T20:36:52.340Z,4.20
2023-02-11T20:39:22.384Z,4.20
2023-02-11T20:41:50.882Z,4.10
2023-02-11T20:44:18.875Z,4.10
2023-02-11T20:46:46.843Z,4.10
2023-02-11T20:49:16.750Z,4.20
2023-02-11T20:51:45.230Z,4.10
2023-02-11T20:54:18.261Z,4.10
2023-02-11T20:56:48.065Z,4.00
2023-02-11T20:59:16.899Z,4.10
2023-02-11T21:01:47.928Z,4.30
2023-02-11T21:04:19.883Z,4.30
2023-02-11T21:06:49.868Z,4.30
2023-02-11T21:09:20.018Z,4.10
2023-02-11T21:11:48.816Z,4.20
2023-02-11T21:14:16.338Z,4.10
2023-02-11T21:16:43.886Z,4.00
2023-02-11T21:19:12.114Z,4.00
2023-02-11T21:21:39.980Z,3.80
2023-02-11T21:24:08.818Z,3.90
2023-02-11T21:26:37.588Z,3.90
2023-02-11T21:29:09.478Z,3.90
2023-02-11T21:31:38.106Z,3.90
2023-02-11T21:34:06.683Z,3.90
2023-02-11T21:36:34.714Z,3.80
2023-02-11T21:39:03.974Z,3.90
2023-02-11T21:41:32.135Z,4.00
2023-02-11T21:43:59.623Z,3.80
2023-02-11T21:46:27.553Z,3.80
2023-02-11T21:48:55.047Z,3.70
2023-02-11T21:51:24.752Z,3.70
2023-02-11T21:54:01.533Z,3.80
2023-02-11T21:56:31.109Z,3.70
2023-02-11T21:59:00.286Z,3.70
2023-02-11T22:01:32.290Z,3.70
2023-02-11T22:04:00.199Z,3.60
2023-02-11T22:06:31.580Z,3.50
2023-02-11T22:09:04.410Z,3.40
2023-02-11T22:11:31.913Z,3.40
2023-02-11T22:13:59.821Z,3.30
2023-02-11T22:16:33.623Z,3.40
2023-02-11T22:19:02.580Z,3.40
2023-02-11T22:21:30.231Z,3.40
2023-02-11T22:23:57.812Z,3.40
2023-02-11T22:26:27.254Z,3.40
2023-02-11T22:28:56.380Z,3.40
2023-02-11T22:31:27.595Z,3.30
2023-02-11T22:33:55.568Z,3.50
2023-02-11T22:36:37.489Z,3.60
2023-02-11T22:39:17.820Z,3.40
2023-02-11T22:41:51.880Z,3.40
2023-02-11T22:44:20.676Z,3.50
2023-02-11T22:46:48.153Z,3.40
2023-02-11T22:49:17.346Z,3.30
2023-02-11T22:51:45.142Z,3.40
2023-02-11T22:54:15.019Z,3.40
2023-02-11T22:59:38.116Z,3.30
2023-02-11T23:08:12.681Z,3.30
2023-02-11T23:10:40.472Z,3.30
2023-02-11T23:13:10.530Z,3.40
2023-02-11T23:15:48.229Z,3.30
2023-02-11T23:18:17.033Z,3.20
2023-02-11T23:20:45.111Z,3.20
2023-02-11T23:23:12.738Z,3.10
2023-02-11T23:25:44.470Z,3.10
2023-02-11T23:28:12.513Z,3.10
2023-02-11T23:30:41.363Z,3.00
2023-02-11T23:33:13.426Z,3.10
2023-02-11T23:35:41.015Z,3.10
2023-02-11T23:38:08.480Z,3.10
2023-02-11T23:40:35.964Z,3.10
2023-02-11T23:43:03.510Z,3.20
2023-02-11T23:45:31.427Z,3.00
2023-02-11T23:47:59.021Z,3.00
2023-02-11T23:50:26.487Z,2.90
2023-02-11T23:52:54.266Z,3.00
2023-02-11T23:55:24.892Z,3.00
2023-02-11T23:57:55.636Z,3.00
